Skip Navigation Links Skip Navigation Links

Current Weather

Willow Run, Detroit

For information only: do not use for flight planning or navigation.
Latest weather
Observation time Sunday, May 31, 2020 8:53 AM EDT
Local time Sunday, May 31, 2020 9:12 AM EDT
Flight conditions Visual Meteorological Conditions
Winds
Wind direction North-Northwest (330°)
Wind speed 13 mph
Visibility 10 mi.
Sky condition
Ceiling unlimited
Sky clear
Temperature 52°F
Dewpoint 35°F
Altimeter 30.34 in.Hg
Derived measurements
Relative humidity 52%
Density altitude -123 ft.
Sea-level pressure 30.33 in.Hg
Remarks
Automated weather observing station with precipitation discriminator.
METAR KYIP 311253Z 33011KT 10SM CLR 11/02 A3034 RMK AO2 SLP272 T01110017

Settings

Location code

InnerDrive.Weather 4.0.6770.0 Release CLR 4.0.30319.42000
Copyright ©2018 Inner Drive Technology. All rights reserved. Portions Copyright ©1986-2018 David Braverman.

Find weather

Site navigation


Skip Navigation Links

Place info

Page info

PayPal - The safer, easier way to pay online!

Return home.

Copyright ©2020 Inner Drive Technology. Purveyors of fine, hand-crafted computer software. Page printed 2020-05-31T13:12:52 UTC.